Auburn, Missouri
Current Conditions -  °F | °C
As of 5:54 AM on Monday 24 Nov 2014 (Local Time) from KSET Reporting Station
Overcast Overcast  
Wind Chill: 29°   Ceiling: 1700
Heat Index: 38°   Visibility: 10mi
Dew Point: 34°   Wind: 15mph
Humidity: 86%   Direction: 270°W
Pressure: 29.44"   Gusts: NA
Location:  39.1646°N, 90.8436°W
Report Text: KSET 241154Z AUTO 27013KT 10SM BKN017 BKN025 OVC041 03/01 A2944 RMK AO2 UPE05 SLP969 P0000 60049 70137 T00330011 10111 20017 51056
Loading
Personal Weather Stations






























Interactive Weather Map New forecast layout! Learn more

10-Day Weather Forecast

Advertisements
Track Severe Weather on mobile